sensor_id;sensor_type;location;lat;lon;timestamp;P1;durP1;ratioP1;P2;durP2;ratioP2
65706;SDS011;52423;43.512;5.220;2023-03-01T00:01:16;18.10;;;13.95;;
65706;SDS011;52423;43.512;5.220;2023-03-01T00:03:52;18.05;;;12.95;;
65706;SDS011;52423;43.512;5.220;2023-03-01T00:06:18;14.73;;;12.18;;
65706;SDS011;52423;43.512;5.220;2023-03-01T00:08:51;14.02;;;11.50;;
65706;SDS011;52423;43.512;5.220;2023-03-01T00:11:23;12.70;;;10.15;;
65706;SDS011;52423;43.512;5.220;2023-03-01T00:13:51;13.45;;;11.23;;
65706;SDS011;52423;43.512;5.220;2023-03-01T00:16:22;15.20;;;11.82;;
65706;SDS011;52423;43.512;5.220;2023-03-01T00:18:58;17.80;;;12.63;;
65706;SDS011;52423;43.512;5.220;2023-03-01T00:21:25;17.75;;;13.57;;
65706;SDS011;52423;43.512;5.220;2023-03-01T00:23:51;16.75;;;12.63;;
65706;SDS011;52423;43.512;5.220;2023-03-01T00:26:17;17.88;;;12.93;;
65706;SDS011;52423;43.512;5.220;2023-03-01T00:28:49;13.25;;;11.07;;
65706;SDS011;52423;43.512;5.220;2023-03-01T00:31:16;11.98;;;10.15;;
65706;SDS011;52423;43.512;5.220;2023-03-01T00:33:57;13.88;;;11.05;;
65706;SDS011;52423;43.512;5.220;2023-03-01T00:36:26;14.13;;;10.27;;
65706;SDS011;52423;43.512;5.220;2023-03-01T00:38:56;14.45;;;10.95;;
65706;SDS011;52423;43.512;5.220;2023-03-01T00:41:22;14.15;;;11.23;;
65706;SDS011;52423;43.512;5.220;2023-03-01T00:43:58;15.43;;;11.43;;
65706;SDS011;52423;43.512;5.220;2023-03-01T00:46:24;14.82;;;11.02;;
65706;SDS011;52423;43.512;5.220;2023-03-01T00:49:00;13.07;;;10.98;;
65706;SDS011;52423;43.512;5.220;2023-03-01T00:51:28;11.20;;;9.80;;
65706;SDS011;52423;43.512;5.220;2023-03-01T00:54:01;16.75;;;12.32;;
65706;SDS011;52423;43.512;5.220;2023-03-01T00:56:27;17.30;;;11.00;;
65706;SDS011;52423;43.512;5.220;2023-03-01T00:59:04;16.13;;;11.52;;
65706;SDS011;52423;43.512;5.220;2023-03-01T01:01:30;18.35;;;12.50;;
65706;SDS011;52423;43.512;5.220;2023-03-01T01:04:09;16.75;;;12.18;;
65706;SDS011;52423;43.512;5.220;2023-03-01T01:09:07;15.07;;;12.05;;
65706;SDS011;52423;43.512;5.220;2023-03-01T01:11:46;26.90;;;15.90;;
65706;SDS011;52423;43.512;5.220;2023-03-01T01:14:20;31.70;;;20.55;;
65706;SDS011;52423;43.512;5.220;2023-03-01T01:16:51;17.92;;;13.75;;
65706;SDS011;52423;43.512;5.220;2023-03-01T01:19:17;14.60;;;11.77;;
65706;SDS011;52423;43.512;5.220;2023-03-01T01:21:42;16.45;;;10.82;;
65706;SDS011;52423;43.512;5.220;2023-03-01T01:24:08;13.98;;;11.52;;
65706;SDS011;52423;43.512;5.220;2023-03-01T01:26:40;12.68;;;11.25;;
65706;SDS011;52423;43.512;5.220;2023-03-01T01:29:05;14.85;;;11.82;;
65706;SDS011;52423;43.512;5.220;2023-03-01T01:31:31;11.77;;;10.55;;
65706;SDS011;52423;43.512;5.220;2023-03-01T01:34:04;14.07;;;11.63;;
65706;SDS011;52423;43.512;5.220;2023-03-01T01:36:37;12.88;;;10.52;;
65706;SDS011;52423;43.512;5.220;2023-03-01T01:39:06;14.63;;;10.95;;
65706;SDS011;52423;43.512;5.220;2023-03-01T01:41:38;16.75;;;10.38;;
65706;SDS011;52423;43.512;5.220;2023-03-01T01:49:35;18.67;;;12.73;;
65706;SDS011;52423;43.512;5.220;2023-03-01T01:54:31;15.75;;;12.60;;
65706;SDS011;52423;43.512;5.220;2023-03-01T01:57:06;14.65;;;11.50;;
65706;SDS011;52423;43.512;5.220;2023-03-01T01:59:36;12.45;;;10.90;;
65706;SDS011;52423;43.512;5.220;2023-03-01T02:02:02;17.92;;;10.10;;
65706;SDS011;52423;43.512;5.220;2023-03-01T02:04:29;13.27;;;10.27;;
65706;SDS011;52423;43.512;5.220;2023-03-01T02:07:07;13.45;;;10.88;;
65706;SDS011;52423;43.512;5.220;2023-03-01T02:09:40;12.93;;;10.57;;
65706;SDS011;52423;43.512;5.220;2023-03-01T02:12:09;14.70;;;11.32;;
65706;SDS011;52423;43.512;5.220;2023-03-01T02:14:37;13.18;;;10.95;;
65706;SDS011;52423;43.512;5.220;2023-03-01T02:17:02;14.70;;;10.82;;
65706;SDS011;52423;43.512;5.220;2023-03-01T02:27:37;12.98;;;9.63;;
65706;SDS011;52423;43.512;5.220;2023-03-01T02:30:20;14.32;;;10.30;;
65706;SDS011;52423;43.512;5.220;2023-03-01T02:32:47;14.68;;;11.05;;
65706;SDS011;52423;43.512;5.220;2023-03-01T02:35:14;14.73;;;11.48;;
65706;SDS011;52423;43.512;5.220;2023-03-01T02:37:42;15.13;;;11.70;;
65706;SDS011;52423;43.512;5.220;2023-03-01T02:40:10;15.88;;;11.05;;
65706;SDS011;52423;43.512;5.220;2023-03-01T02:42:48;16.25;;;10.32;;
65706;SDS011;52423;43.512;5.220;2023-03-01T02:45:17;16.38;;;11.13;;
65706;SDS011;52423;43.512;5.220;2023-03-01T02:47:48;12.65;;;9.75;;
65706;SDS011;52423;43.512;5.220;2023-03-01T02:50:22;13.52;;;11.07;;
65706;SDS011;52423;43.512;5.220;2023-03-01T02:53:17;13.60;;;10.32;;
65706;SDS011;52423;43.512;5.220;2023-03-01T02:55:53;14.43;;;10.38;;
65706;SDS011;52423;43.512;5.220;2023-03-01T02:58:19;19.35;;;11.70;;
65706;SDS011;52423;43.512;5.220;2023-03-01T03:00:44;12.45;;;10.50;;
65706;SDS011;52423;43.512;5.220;2023-03-01T03:03:19;12.55;;;10.05;;
65706;SDS011;52423;43.512;5.220;2023-03-01T03:05:45;13.45;;;10.57;;
65706;SDS011;52423;43.512;5.220;2023-03-01T03:08:16;15.10;;;9.90;;
65706;SDS011;52423;43.512;5.220;2023-03-01T03:10:48;15.57;;;11.38;;
65706;SDS011;52423;43.512;5.220;2023-03-01T03:13:23;12.77;;;9.82;;
65706;SDS011;52423;43.512;5.220;2023-03-01T03:15:53;11.57;;;9.75;;
65706;SDS011;52423;43.512;5.220;2023-03-01T03:18:20;14.60;;;10.52;;
65706;SDS011;52423;43.512;5.220;2023-03-01T03:20:47;15.18;;;9.85;;
65706;SDS011;52423;43.512;5.220;2023-03-01T03:23:12;12.18;;;10.25;;
65706;SDS011;52423;43.512;5.220;2023-03-01T03:25:41;12.95;;;10.73;;
65706;SDS011;52423;43.512;5.220;2023-03-01T03:28:07;11.48;;;9.82;;
65706;SDS011;52423;43.512;5.220;2023-03-01T03:30:38;14.38;;;10.40;;
65706;SDS011;52423;43.512;5.220;2023-03-01T03:33:11;15.30;;;10.75;;
65706;SDS011;52423;43.512;5.220;2023-03-01T03:35:38;14.57;;;11.20;;
65706;SDS011;52423;43.512;5.220;2023-03-01T03:38:13;12.40;;;10.48;;
65706;SDS011;52423;43.512;5.220;2023-03-01T03:40:42;14.63;;;11.02;;
65706;SDS011;52423;43.512;5.220;2023-03-01T03:43:11;11.75;;;10.40;;
65706;SDS011;52423;43.512;5.220;2023-03-01T03:45:39;14.10;;;11.15;;
65706;SDS011;52423;43.512;5.220;2023-03-01T03:48:08;15.45;;;10.70;;
65706;SDS011;52423;43.512;5.220;2023-03-01T03:50:35;12.05;;;10.27;;
65706;SDS011;52423;43.512;5.220;2023-03-01T03:53:01;13.57;;;11.10;;
65706;SDS011;52423;43.512;5.220;2023-03-01T03:55:28;12.05;;;10.57;;
65706;SDS011;52423;43.512;5.220;2023-03-01T03:57:56;14.20;;;10.20;;
65706;SDS011;52423;43.512;5.220;2023-03-01T04:00:28;14.02;;;11.18;;
65706;SDS011;52423;43.512;5.220;2023-03-01T04:02:54;14.68;;;10.60;;
65706;SDS011;52423;43.512;5.220;2023-03-01T04:05:21;15.10;;;10.90;;
65706;SDS011;52423;43.512;5.220;2023-03-01T04:07:47;13.02;;;10.40;;
65706;SDS011;52423;43.512;5.220;2023-03-01T04:10:17;17.20;;;11.73;;
65706;SDS011;52423;43.512;5.220;2023-03-01T04:12:45;13.35;;;10.65;;
65706;SDS011;52423;43.512;5.220;2023-03-01T04:15:11;12.98;;;10.57;;
65706;SDS011;52423;43.512;5.220;2023-03-01T04:17:40;17.88;;;10.63;;
65706;SDS011;52423;43.512;5.220;2023-03-01T04:20:20;13.20;;;10.77;;
65706;SDS011;52423;43.512;5.220;2023-03-01T04:23:07;15.07;;;11.48;;
65706;SDS011;52423;43.512;5.220;2023-03-01T04:28:28;16.42;;;10.63;;
65706;SDS011;52423;43.512;5.220;2023-03-01T04:31:08;15.07;;;11.18;;
65706;SDS011;52423;43.512;5.220;2023-03-01T04:33:42;14.73;;;11.10;;
65706;SDS011;52423;43.512;5.220;2023-03-01T04:36:15;13.30;;;10.77;;
65706;SDS011;52423;43.512;5.220;2023-03-01T04:38:41;15.68;;;11.43;;
65706;SDS011;52423;43.512;5.220;2023-03-01T04:41:08;13.85;;;11.63;;
65706;SDS011;52423;43.512;5.220;2023-03-01T04:43:35;15.57;;;11.88;;
65706;SDS011;52423;43.512;5.220;2023-03-01T04:46:02;14.48;;;11.88;;
65706;SDS011;52423;43.512;5.220;2023-03-01T04:48:35;14.10;;;10.85;;
65706;SDS011;52423;43.512;5.220;2023-03-01T04:51:01;15.82;;;11.07;;
65706;SDS011;52423;43.512;5.220;2023-03-01T04:53:28;14.00;;;11.23;;
65706;SDS011;52423;43.512;5.220;2023-03-01T04:55:54;13.75;;;11.02;;
65706;SDS011;52423;43.512;5.220;2023-03-01T04:58:21;15.77;;;11.65;;
65706;SDS011;52423;43.512;5.220;2023-03-01T05:00:54;13.82;;;11.57;;
65706;SDS011;52423;43.512;5.220;2023-03-01T05:03:20;15.20;;;12.07;;
65706;SDS011;52423;43.512;5.220;2023-03-01T05:05:46;13.13;;;11.32;;
65706;SDS011;52423;43.512;5.220;2023-03-01T05:08:14;13.23;;;11.32;;
65706;SDS011;52423;43.512;5.220;2023-03-01T05:10:44;15.63;;;12.07;;
65706;SDS011;52423;43.512;5.220;2023-03-01T05:13:14;13.25;;;11.25;;
65706;SDS011;52423;43.512;5.220;2023-03-01T05:15:45;12.30;;;10.52;;
65706;SDS011;52423;43.512;5.220;2023-03-01T05:18:21;12.88;;;10.77;;
65706;SDS011;52423;43.512;5.220;2023-03-01T05:20:53;15.57;;;10.98;;
65706;SDS011;52423;43.512;5.220;2023-03-01T05:23:23;13.25;;;11.02;;
65706;SDS011;52423;43.512;5.220;2023-03-01T05:25:49;13.15;;;10.63;;
65706;SDS011;52423;43.512;5.220;2023-03-01T05:28:17;12.80;;;10.52;;
65706;SDS011;52423;43.512;5.220;2023-03-01T05:30:47;16.45;;;12.77;;
65706;SDS011;52423;43.512;5.220;2023-03-01T05:33:12;16.65;;;10.77;;
65706;SDS011;52423;43.512;5.220;2023-03-01T05:35:44;15.50;;;11.93;;
65706;SDS011;52423;43.512;5.220;2023-03-01T05:38:10;31.90;;;22.48;;
65706;SDS011;52423;43.512;5.220;2023-03-01T05:40:38;26.75;;;20.00;;
65706;SDS011;52423;43.512;5.220;2023-03-01T05:43:14;26.27;;;17.63;;
65706;SDS011;52423;43.512;5.220;2023-03-01T05:45:41;16.98;;;12.98;;
65706;SDS011;52423;43.512;5.220;2023-03-01T05:48:08;25.35;;;17.67;;
65706;SDS011;52423;43.512;5.220;2023-03-01T05:50:41;30.63;;;23.10;;
65706;SDS011;52423;43.512;5.220;2023-03-01T05:55:46;18.10;;;14.05;;
65706;SDS011;52423;43.512;5.220;2023-03-01T05:58:16;19.40;;;13.82;;
65706;SDS011;52423;43.512;5.220;2023-03-01T06:00:49;15.55;;;12.70;;
65706;SDS011;52423;43.512;5.220;2023-03-01T06:03:17;21.00;;;13.98;;
65706;SDS011;52423;43.512;5.220;2023-03-01T06:05:43;14.82;;;12.60;;
65706;SDS011;52423;43.512;5.220;2023-03-01T06:08:09;15.15;;;12.60;;
65706;SDS011;52423;43.512;5.220;2023-03-01T06:10:36;19.85;;;13.75;;
65706;SDS011;52423;43.512;5.220;2023-03-01T06:13:01;20.65;;;15.65;;
65706;SDS011;52423;43.512;5.220;2023-03-01T06:15:27;14.35;;;11.93;;
65706;SDS011;52423;43.512;5.220;2023-03-01T06:17:53;18.15;;;13.32;;
65706;SDS011;52423;43.512;5.220;2023-03-01T06:20:22;17.60;;;12.00;;
65706;SDS011;52423;43.512;5.220;2023-03-01T06:22:49;20.60;;;14.95;;
65706;SDS011;52423;43.512;5.220;2023-03-01T06:25:16;20.80;;;14.95;;
65706;SDS011;52423;43.512;5.220;2023-03-01T06:27:49;26.17;;;20.30;;
65706;SDS011;52423;43.512;5.220;2023-03-01T06:30:15;20.77;;;14.75;;
65706;SDS011;52423;43.512;5.220;2023-03-01T06:32:42;21.98;;;15.10;;
65706;SDS011;52423;43.512;5.220;2023-03-01T06:35:09;22.13;;;15.00;;
65706;SDS011;52423;43.512;5.220;2023-03-01T06:37:35;20.40;;;15.85;;
65706;SDS011;52423;43.512;5.220;2023-03-01T06:40:07;19.08;;;14.13;;
65706;SDS011;52423;43.512;5.220;2023-03-01T06:42:37;22.67;;;15.77;;
65706;SDS011;52423;43.512;5.220;2023-03-01T06:45:12;18.67;;;15.15;;
65706;SDS011;52423;43.512;5.220;2023-03-01T06:47:38;18.65;;;15.25;;
65706;SDS011;52423;43.512;5.220;2023-03-01T06:50:16;19.83;;;15.23;;
65706;SDS011;52423;43.512;5.220;2023-03-01T06:52:42;19.50;;;14.90;;
65706;SDS011;52423;43.512;5.220;2023-03-01T06:55:15;18.48;;;14.77;;
65706;SDS011;52423;43.512;5.220;2023-03-01T06:57:41;18.60;;;14.67;;
65706;SDS011;52423;43.512;5.220;2023-03-01T07:00:18;20.00;;;15.25;;
65706;SDS011;52423;43.512;5.220;2023-03-01T07:02:51;22.70;;;15.20;;
65706;SDS011;52423;43.512;5.220;2023-03-01T07:05:20;20.40;;;15.45;;
65706;SDS011;52423;43.512;5.220;2023-03-01T07:07:45;15.40;;;12.90;;
65706;SDS011;52423;43.512;5.220;2023-03-01T07:10:16;20.10;;;13.57;;
65706;SDS011;52423;43.512;5.220;2023-03-01T07:12:54;19.38;;;14.43;;
65706;SDS011;52423;43.512;5.220;2023-03-01T07:15:20;21.25;;;15.70;;
65706;SDS011;52423;43.512;5.220;2023-03-01T07:17:45;24.58;;;18.20;;
65706;SDS011;52423;43.512;5.220;2023-03-01T07:20:12;25.65;;;18.35;;
65706;SDS011;52423;43.512;5.220;2023-03-01T07:22:41;27.52;;;19.50;;
65706;SDS011;52423;43.512;5.220;2023-03-01T07:25:10;34.33;;;21.02;;
65706;SDS011;52423;43.512;5.220;2023-03-01T07:27:36;24.13;;;16.65;;
65706;SDS011;52423;43.512;5.220;2023-03-01T07:30:01;25.85;;;17.83;;
65706;SDS011;52423;43.512;5.220;2023-03-01T07:32:27;33.25;;;19.88;;
65706;SDS011;52423;43.512;5.220;2023-03-01T07:34:53;48.00;;;24.95;;
65706;SDS011;52423;43.512;5.220;2023-03-01T07:37:27;31.95;;;20.85;;
65706;SDS011;52423;43.512;5.220;2023-03-01T07:39:52;32.63;;;20.40;;
65706;SDS011;52423;43.512;5.220;2023-03-01T07:42:18;37.85;;;19.10;;
65706;SDS011;52423;43.512;5.220;2023-03-01T07:44:43;28.30;;;19.20;;
65706;SDS011;52423;43.512;5.220;2023-03-01T07:47:08;30.02;;;17.42;;
65706;SDS011;52423;43.512;5.220;2023-03-01T07:49:46;18.90;;;15.80;;
65706;SDS011;52423;43.512;5.220;2023-03-01T07:52:11;23.50;;;15.20;;
65706;SDS011;52423;43.512;5.220;2023-03-01T07:54:37;22.13;;;15.63;;
65706;SDS011;52423;43.512;5.220;2023-03-01T07:57:03;23.77;;;14.30;;
65706;SDS011;52423;43.512;5.220;2023-03-01T07:59:28;22.67;;;15.60;;
65706;SDS011;52423;43.512;5.220;2023-03-01T08:01:57;18.88;;;14.63;;
65706;SDS011;52423;43.512;5.220;2023-03-01T08:04:22;18.20;;;14.07;;
65706;SDS011;52423;43.512;5.220;2023-03-01T08:06:50;17.02;;;13.70;;
65706;SDS011;52423;43.512;5.220;2023-03-01T08:09:15;18.70;;;14.40;;
65706;SDS011;52423;43.512;5.220;2023-03-01T08:11:47;17.77;;;14.18;;
65706;SDS011;52423;43.512;5.220;2023-03-01T08:14:18;18.33;;;15.18;;
65706;SDS011;52423;43.512;5.220;2023-03-01T08:16:44;22.02;;;13.82;;
65706;SDS011;52423;43.512;5.220;2023-03-01T08:19:15;20.92;;;14.63;;
65706;SDS011;52423;43.512;5.220;2023-03-01T08:21:40;20.88;;;14.50;;
65706;SDS011;52423;43.512;5.220;2023-03-01T08:24:06;20.83;;;15.02;;
65706;SDS011;52423;43.512;5.220;2023-03-01T08:26:35;18.73;;;14.95;;
65706;SDS011;52423;43.512;5.220;2023-03-01T08:29:01;20.83;;;14.68;;
65706;SDS011;52423;43.512;5.220;2023-03-01T08:31:29;17.63;;;14.48;;
65706;SDS011;52423;43.512;5.220;2023-03-01T08:34:07;18.40;;;14.55;;
65706;SDS011;52423;43.512;5.220;2023-03-01T08:36:36;23.52;;;15.88;;
65706;SDS011;52423;43.512;5.220;2023-03-01T08:39:03;24.05;;;17.00;;
65706;SDS011;52423;43.512;5.220;2023-03-01T08:41:29;25.85;;;16.20;;
65706;SDS011;52423;43.512;5.220;2023-03-01T08:44:01;19.40;;;15.15;;
65706;SDS011;52423;43.512;5.220;2023-03-01T08:46:44;17.95;;;14.45;;
65706;SDS011;52423;43.512;5.220;2023-03-01T08:49:11;22.02;;;15.48;;
65706;SDS011;52423;43.512;5.220;2023-03-01T08:51:38;20.85;;;15.77;;
65706;SDS011;52423;43.512;5.220;2023-03-01T08:54:14;21.63;;;15.02;;
65706;SDS011;52423;43.512;5.220;2023-03-01T08:56:42;18.25;;;14.65;;
65706;SDS011;52423;43.512;5.220;2023-03-01T08:59:07;19.02;;;13.70;;
65706;SDS011;52423;43.512;5.220;2023-03-01T09:01:34;20.80;;;15.73;;
65706;SDS011;52423;43.512;5.220;2023-03-01T09:03:59;23.50;;;14.93;;
65706;SDS011;52423;43.512;5.220;2023-03-01T09:06:31;19.88;;;15.35;;
65706;SDS011;52423;43.512;5.220;2023-03-01T09:08:58;17.10;;;14.48;;
65706;SDS011;52423;43.512;5.220;2023-03-01T09:11:23;19.92;;;14.88;;
65706;SDS011;52423;43.512;5.220;2023-03-01T09:13:49;23.10;;;16.10;;
65706;SDS011;52423;43.512;5.220;2023-03-01T09:16:20;17.63;;;14.48;;
65706;SDS011;52423;43.512;5.220;2023-03-01T09:18:50;23.02;;;17.38;;
65706;SDS011;52423;43.512;5.220;2023-03-01T09:21:18;19.17;;;15.45;;
65706;SDS011;52423;43.512;5.220;2023-03-01T09:23:55;19.02;;;14.77;;
65706;SDS011;52423;43.512;5.220;2023-03-01T09:26:22;21.67;;;15.40;;
65706;SDS011;52423;43.512;5.220;2023-03-01T09:28:49;17.00;;;14.45;;
65706;SDS011;52423;43.512;5.220;2023-03-01T09:31:16;21.25;;;15.05;;
65706;SDS011;52423;43.512;5.220;2023-03-01T09:33:44;19.85;;;14.57;;
65706;SDS011;52423;43.512;5.220;2023-03-01T09:36:13;16.20;;;13.60;;
65706;SDS011;52423;43.512;5.220;2023-03-01T09:38:41;20.58;;;14.48;;
65706;SDS011;52423;43.512;5.220;2023-03-01T09:41:11;17.60;;;13.68;;
65706;SDS011;52423;43.512;5.220;2023-03-01T09:43:59;16.73;;;14.10;;
65706;SDS011;52423;43.512;5.220;2023-03-01T09:46:29;17.55;;;13.68;;
65706;SDS011;52423;43.512;5.220;2023-03-01T09:49:04;16.27;;;13.27;;
65706;SDS011;52423;43.512;5.220;2023-03-01T09:51:37;18.27;;;14.35;;
65706;SDS011;52423;43.512;5.220;2023-03-01T09:54:03;17.75;;;14.57;;
65706;SDS011;52423;43.512;5.220;2023-03-01T09:56:44;18.13;;;13.65;;
65706;SDS011;52423;43.512;5.220;2023-03-01T09:59:23;20.92;;;14.48;;
65706;SDS011;52423;43.512;5.220;2023-03-01T10:04:27;20.55;;;14.32;;
65706;SDS011;52423;43.512;5.220;2023-03-01T10:09:43;16.58;;;14.32;;
65706;SDS011;52423;43.512;5.220;2023-03-01T10:12:11;17.65;;;13.75;;
65706;SDS011;52423;43.512;5.220;2023-03-01T10:14:43;19.33;;;15.15;;
65706;SDS011;52423;43.512;5.220;2023-03-01T10:17:35;22.77;;;13.68;;
65706;SDS011;52423;43.512;5.220;2023-03-01T10:22:50;19.38;;;13.55;;
65706;SDS011;52423;43.512;5.220;2023-03-01T10:25:29;16.77;;;13.88;;
65706;SDS011;52423;43.512;5.220;2023-03-01T10:31:17;18.02;;;13.95;;
65706;SDS011;52423;43.512;5.220;2023-03-01T10:33:47;17.80;;;13.90;;
65706;SDS011;52423;43.512;5.220;2023-03-01T10:36:16;17.83;;;13.88;;
65706;SDS011;52423;43.512;5.220;2023-03-01T10:38:50;22.13;;;15.07;;
65706;SDS011;52423;43.512;5.220;2023-03-01T10:41:19;17.83;;;14.65;;
65706;SDS011;52423;43.512;5.220;2023-03-01T10:43:46;16.25;;;14.40;;
65706;SDS011;52423;43.512;5.220;2023-03-01T10:46:31;21.33;;;13.60;;
65706;SDS011;52423;43.512;5.220;2023-03-01T10:49:21;15.48;;;13.05;;
65706;SDS011;52423;43.512;5.220;2023-03-01T10:51:51;16.98;;;13.43;;
65706;SDS011;52423;43.512;5.220;2023-03-01T10:56:57;21.83;;;13.88;;
65706;SDS011;52423;43.512;5.220;2023-03-01T10:59:29;14.43;;;12.93;;
65706;SDS011;52423;43.512;5.220;2023-03-01T11:02:04;16.70;;;13.05;;
65706;SDS011;52423;43.512;5.220;2023-03-01T11:04:55;16.50;;;12.82;;
65706;SDS011;52423;43.512;5.220;2023-03-01T11:10:29;15.65;;;12.93;;
65706;SDS011;52423;43.512;5.220;2023-03-01T11:16:04;13.43;;;11.85;;
65706;SDS011;52423;43.512;5.220;2023-03-01T11:18:39;20.50;;;13.30;;
65706;SDS011;52423;43.512;5.220;2023-03-01T11:21:17;16.85;;;13.10;;
65706;SDS011;52423;43.512;5.220;2023-03-01T11:23:43;18.58;;;12.63;;
65706;SDS011;52423;43.512;5.220;2023-03-01T11:26:17;15.20;;;13.20;;
65706;SDS011;52423;43.512;5.220;2023-03-01T11:28:44;13.95;;;12.07;;
65706;SDS011;52423;43.512;5.220;2023-03-01T11:31:18;15.70;;;13.85;;
65706;SDS011;52423;43.512;5.220;2023-03-01T11:41:42;16.50;;;13.15;;
65706;SDS011;52423;43.512;5.220;2023-03-01T11:44:14;17.63;;;13.50;;
65706;SDS011;52423;43.512;5.220;2023-03-01T12:03:33;15.77;;;12.73;;
65706;SDS011;52423;43.512;5.220;2023-03-01T12:19:42;19.40;;;12.13;;
65706;SDS011;52423;43.512;5.220;2023-03-01T12:22:39;16.50;;;13.18;;
65706;SDS011;52423;43.512;5.220;2023-03-01T12:38:42;15.48;;;13.82;;
65706;SDS011;52423;43.512;5.220;2023-03-01T12:41:41;21.90;;;14.30;;
65706;SDS011;52423;43.512;5.220;2023-03-01T12:49:30;15.65;;;13.95;;
65706;SDS011;52423;43.512;5.220;2023-03-01T12:52:09;16.75;;;14.25;;
65706;SDS011;52423;43.512;5.220;2023-03-01T12:54:38;16.73;;;13.65;;
65706;SDS011;52423;43.512;5.220;2023-03-01T12:57:15;21.92;;;14.13;;
65706;SDS011;52423;43.512;5.220;2023-03-01T13:03:15;18.77;;;14.27;;
65706;SDS011;52423;43.512;5.220;2023-03-01T13:06:08;15.73;;;13.75;;
65706;SDS011;52423;43.512;5.220;2023-03-01T13:11:46;19.27;;;13.18;;
65706;SDS011;52423;43.512;5.220;2023-03-01T13:16:48;14.95;;;13.13;;
65706;SDS011;52423;43.512;5.220;2023-03-01T13:19:15;20.65;;;13.65;;
65706;SDS011;52423;43.512;5.220;2023-03-01T13:21:43;23.38;;;12.95;;
65706;SDS011;52423;43.512;5.220;2023-03-01T13:29:51;16.80;;;13.45;;
65706;SDS011;52423;43.512;5.220;2023-03-01T13:37:44;18.10;;;13.60;;
65706;SDS011;52423;43.512;5.220;2023-03-01T13:43:23;15.38;;;12.32;;
65706;SDS011;52423;43.512;5.220;2023-03-01T13:45:51;16.73;;;13.30;;
65706;SDS011;52423;43.512;5.220;2023-03-01T13:48:20;21.95;;;12.70;;
65706;SDS011;52423;43.512;5.220;2023-03-01T13:50:57;17.60;;;13.32;;
65706;SDS011;52423;43.512;5.220;2023-03-01T13:53:26;16.70;;;13.00;;
65706;SDS011;52423;43.512;5.220;2023-03-01T13:58:48;14.70;;;12.70;;
65706;SDS011;52423;43.512;5.220;2023-03-01T14:03:49;16.13;;;13.10;;
65706;SDS011;52423;43.512;5.220;2023-03-01T14:06:16;16.02;;;12.82;;
65706;SDS011;52423;43.512;5.220;2023-03-01T14:08:45;16.73;;;12.38;;
65706;SDS011;52423;43.512;5.220;2023-03-01T14:11:23;16.27;;;13.00;;
65706;SDS011;52423;43.512;5.220;2023-03-01T14:17:20;14.63;;;11.65;;
65706;SDS011;52423;43.512;5.220;2023-03-01T14:19:55;14.45;;;12.95;;
65706;SDS011;52423;43.512;5.220;2023-03-01T14:22:24;15.45;;;12.52;;
65706;SDS011;52423;43.512;5.220;2023-03-01T14:24:54;13.45;;;12.10;;
65706;SDS011;52423;43.512;5.220;2023-03-01T14:27:24;14.75;;;12.77;;
65706;SDS011;52423;43.512;5.220;2023-03-01T14:29:57;15.88;;;13.05;;
65706;SDS011;52423;43.512;5.220;2023-03-01T14:32:25;14.65;;;12.32;;
65706;SDS011;52423;43.512;5.220;2023-03-01T14:34:56;18.48;;;13.82;;
65706;SDS011;52423;43.512;5.220;2023-03-01T14:37:30;22.45;;;13.02;;
65706;SDS011;52423;43.512;5.220;2023-03-01T14:40:02;16.83;;;11.98;;
65706;SDS011;52423;43.512;5.220;2023-03-01T14:42:30;13.07;;;11.38;;
65706;SDS011;52423;43.512;5.220;2023-03-01T14:45:09;18.38;;;12.55;;
65706;SDS011;52423;43.512;5.220;2023-03-01T14:47:38;15.40;;;11.65;;
65706;SDS011;52423;43.512;5.220;2023-03-01T14:53:05;16.90;;;12.90;;
65706;SDS011;52423;43.512;5.220;2023-03-01T14:55:42;15.35;;;12.25;;
65706;SDS011;52423;43.512;5.220;2023-03-01T14:58:15;20.90;;;12.50;;
65706;SDS011;52423;43.512;5.220;2023-03-01T15:00:57;15.30;;;11.82;;
65706;SDS011;52423;43.512;5.220;2023-03-01T15:03:37;15.27;;;12.73;;
65706;SDS011;52423;43.512;5.220;2023-03-01T15:06:07;15.85;;;12.25;;
65706;SDS011;52423;43.512;5.220;2023-03-01T15:08:33;13.75;;;11.77;;
65706;SDS011;52423;43.512;5.220;2023-03-01T15:11:29;15.95;;;12.52;;
65706;SDS011;52423;43.512;5.220;2023-03-01T15:13:56;16.88;;;12.05;;
65706;SDS011;52423;43.512;5.220;2023-03-01T15:16:32;15.82;;;13.10;;
65706;SDS011;52423;43.512;5.220;2023-03-01T15:19:03;16.92;;;13.25;;
65706;SDS011;52423;43.512;5.220;2023-03-01T15:21:36;17.27;;;12.88;;
65706;SDS011;52423;43.512;5.220;2023-03-01T15:26:44;18.52;;;13.80;;
65706;SDS011;52423;43.512;5.220;2023-03-01T15:29:31;16.02;;;12.40;;
65706;SDS011;52423;43.512;5.220;2023-03-01T15:32:43;18.27;;;13.02;;
65706;SDS011;52423;43.512;5.220;2023-03-01T15:34:58;16.35;;;12.80;;
65706;SDS011;52423;43.512;5.220;2023-03-01T15:37:36;15.45;;;12.30;;
65706;SDS011;52423;43.512;5.220;2023-03-01T15:40:24;17.77;;;13.50;;
65706;SDS011;52423;43.512;5.220;2023-03-01T15:43:00;17.00;;;13.25;;
65706;SDS011;52423;43.512;5.220;2023-03-01T15:45:31;19.20;;;13.35;;
65706;SDS011;52423;43.512;5.220;2023-03-01T15:48:03;20.67;;;13.07;;
65706;SDS011;52423;43.512;5.220;2023-03-01T15:50:34;16.70;;;13.00;;
65706;SDS011;52423;43.512;5.220;2023-03-01T15:53:05;15.30;;;13.02;;
65706;SDS011;52423;43.512;5.220;2023-03-01T15:55:36;17.88;;;13.52;;
65706;SDS011;52423;43.512;5.220;2023-03-01T15:58:14;15.75;;;12.82;;
65706;SDS011;52423;43.512;5.220;2023-03-01T16:00:48;20.02;;;14.80;;
65706;SDS011;52423;43.512;5.220;2023-03-01T16:03:16;15.45;;;13.23;;
65706;SDS011;52423;43.512;5.220;2023-03-01T16:05:52;19.17;;;14.35;;
65706;SDS011;52423;43.512;5.220;2023-03-01T16:08:20;24.27;;;16.10;;
65706;SDS011;52423;43.512;5.220;2023-03-01T16:10:46;20.30;;;15.10;;
65706;SDS011;52423;43.512;5.220;2023-03-01T16:13:13;16.60;;;13.40;;
65706;SDS011;52423;43.512;5.220;2023-03-01T16:15:39;18.55;;;13.10;;
65706;SDS011;52423;43.512;5.220;2023-03-01T16:18:14;16.42;;;13.55;;
65706;SDS011;52423;43.512;5.220;2023-03-01T16:20:39;17.27;;;12.98;;
65706;SDS011;52423;43.512;5.220;2023-03-01T16:23:06;17.58;;;12.75;;
65706;SDS011;52423;43.512;5.220;2023-03-01T16:25:32;16.02;;;12.32;;
65706;SDS011;52423;43.512;5.220;2023-03-01T16:27:59;14.70;;;12.10;;
65706;SDS011;52423;43.512;5.220;2023-03-01T16:30:31;19.20;;;12.82;;
65706;SDS011;52423;43.512;5.220;2023-03-01T16:32:58;18.83;;;11.32;;
65706;SDS011;52423;43.512;5.220;2023-03-01T16:35:27;18.63;;;13.55;;
65706;SDS011;52423;43.512;5.220;2023-03-01T16:37:52;16.10;;;12.77;;
65706;SDS011;52423;43.512;5.220;2023-03-01T16:40:26;18.08;;;13.80;;
65706;SDS011;52423;43.512;5.220;2023-03-01T16:42:53;22.98;;;14.82;;
65706;SDS011;52423;43.512;5.220;2023-03-01T16:45:20;22.33;;;15.05;;
65706;SDS011;52423;43.512;5.220;2023-03-01T16:47:46;20.48;;;14.90;;
65706;SDS011;52423;43.512;5.220;2023-03-01T16:50:11;24.45;;;16.92;;
65706;SDS011;52423;43.512;5.220;2023-03-01T16:52:37;26.60;;;16.98;;
65706;SDS011;52423;43.512;5.220;2023-03-01T16:55:03;25.98;;;17.40;;
65706;SDS011;52423;43.512;5.220;2023-03-01T16:57:30;21.42;;;15.80;;
65706;SDS011;52423;43.512;5.220;2023-03-01T17:00:08;25.48;;;15.25;;